createdAt,value
2018-06-22T00:02:50.151Z,16.30
2018-06-22T00:07:55.634Z,16.20
2018-06-22T00:13:00.273Z,16.10
2018-06-22T00:18:05.080Z,16.00
2018-06-22T00:23:09.656Z,15.90
2018-06-22T00:28:14.290Z,15.80
2018-06-22T00:33:18.965Z,15.50
2018-06-22T00:38:23.590Z,15.30
2018-06-22T00:43:28.517Z,15.20
2018-06-22T00:48:33.616Z,15.00
2018-06-22T00:53:49.076Z,14.80
2018-06-22T00:58:55.855Z,14.60
2018-06-22T01:04:00.343Z,14.50
2018-06-22T01:09:07.581Z,14.40
2018-06-22T01:14:12.440Z,14.40
2018-06-22T01:19:17.064Z,14.50
2018-06-22T01:24:21.706Z,14.30
2018-06-22T01:29:30.432Z,14.00
2018-06-22T01:34:35.158Z,13.90
2018-06-22T01:39:39.900Z,13.80
2018-06-22T01:44:44.553Z,13.60
2018-06-22T01:49:49.376Z,13.30
2018-06-22T01:54:54.247Z,13.30
2018-06-22T01:59:59.045Z,13.10
2018-06-22T02:05:03.988Z,12.90
2018-06-22T02:10:08.837Z,12.90
2018-06-22T02:15:13.770Z,12.90
2018-06-22T02:20:18.604Z,12.80
2018-06-22T02:25:29.503Z,12.70
2018-06-22T02:30:34.319Z,12.70
2018-06-22T02:35:39.064Z,12.50
2018-06-22T02:40:43.825Z,12.50
2018-06-22T02:45:48.620Z,12.60
2018-06-22T02:50:53.593Z,12.60
2018-06-22T02:55:58.147Z,12.70
2018-06-22T03:01:03.070Z,12.70
2018-06-22T03:06:07.866Z,12.80
2018-06-22T03:11:12.785Z,13.00
2018-06-22T03:16:18.938Z,13.10
2018-06-22T03:21:24.357Z,12.90
2018-06-22T03:26:30.606Z,12.80
2018-06-22T03:31:38.131Z,12.40
2018-06-22T03:36:44.367Z,12.40
2018-06-22T03:41:49.332Z,12.40
2018-06-22T03:46:54.110Z,12.30
2018-06-22T03:51:59.957Z,12.20
2018-06-22T03:57:04.686Z,12.30
2018-06-22T04:02:09.655Z,12.20
2018-06-22T04:07:14.483Z,12.60
2018-06-22T04:12:19.246Z,12.60
2018-06-22T04:17:24.587Z,12.50
2018-06-22T04:22:30.122Z,12.50
2018-06-22T04:27:43.971Z,12.60
2018-06-22T04:32:49.944Z,12.60
2018-06-22T04:37:54.660Z,12.70
2018-06-22T04:42:59.359Z,12.90
2018-06-22T04:48:04.238Z,12.70
2018-06-22T04:53:09.618Z,12.50
2018-06-22T04:58:14.345Z,12.50
2018-06-22T05:03:18.900Z,12.60
2018-06-22T05:08:24.242Z,12.50
2018-06-22T05:13:36.136Z,12.30
2018-06-22T05:18:50.469Z,12.20
2018-06-22T05:23:56.597Z,12.10
2018-06-22T05:29:01.460Z,12.20
2018-06-22T05:34:06.147Z,12.20
2018-06-22T05:39:12.407Z,12.40
2018-06-22T05:44:17.577Z,12.60
2018-06-22T05:49:22.298Z,12.80
2018-06-22T05:54:35.171Z,12.90
2018-06-22T05:59:41.402Z,13.20
2018-06-22T06:04:46.410Z,13.10
2018-06-22T06:09:51.366Z,13.20
2018-06-22T06:14:56.625Z,13.30
2018-06-22T06:20:01.792Z,13.50
2018-06-22T06:25:06.560Z,13.80
2018-06-22T06:30:11.259Z,14.00
2018-06-22T06:35:15.954Z,14.10
2018-06-22T06:40:20.584Z,14.10
2018-06-22T06:45:36.861Z,14.20
2018-06-22T06:50:41.491Z,14.30
2018-06-22T06:55:46.212Z,14.60
2018-06-22T07:00:50.890Z,15.00
2018-06-22T07:05:55.656Z,15.30
2018-06-22T07:11:00.260Z,15.30
2018-06-22T07:16:05.015Z,15.10
2018-06-22T07:21:10.557Z,14.90
2018-06-22T07:26:15.353Z,14.90
2018-06-22T07:31:20.481Z,14.90
2018-06-22T07:36:25.244Z,15.20
2018-06-22T07:41:29.832Z,15.30
2018-06-22T07:46:34.708Z,15.50
2018-06-22T07:51:39.545Z,15.90
2018-06-22T07:56:44.387Z,15.60
2018-06-22T08:01:49.333Z,15.70
2018-06-22T08:06:57.075Z,15.30
2018-06-22T08:12:01.743Z,15.50
2018-06-22T08:17:06.813Z,15.50
2018-06-22T08:22:11.599Z,16.00
2018-06-22T08:27:16.308Z,16.10
2018-06-22T08:32:21.158Z,16.30
2018-06-22T08:37:26.298Z,16.10
2018-06-22T08:42:31.134Z,16.10
2018-06-22T08:47:35.993Z,16.40
2018-06-22T08:57:46.541Z,17.00
2018-06-22T09:02:51.303Z,16.60
2018-06-22T09:07:56.074Z,16.70
2018-06-22T09:13:01.040Z,17.20
2018-06-22T09:18:06.073Z,17.20
2018-06-22T09:28:14.913Z,17.50
2018-06-22T09:33:20.238Z,17.70
2018-06-22T09:38:25.124Z,18.00
2018-06-22T09:43:30.385Z,18.00
2018-06-22T09:48:35.337Z,17.60
2018-06-22T09:53:40.086Z,18.00
2018-06-22T09:58:45.113Z,18.50
2018-06-22T10:03:50.074Z,18.50
2018-06-22T10:08:54.690Z,18.60
2018-06-22T10:13:59.557Z,18.60
2018-06-22T10:19:04.252Z,19.20
2018-06-22T10:24:09.226Z,19.20
2018-06-22T10:29:14.050Z,19.20
2018-06-22T10:34:18.812Z,19.70
2018-06-22T10:39:23.610Z,19.80
2018-06-22T10:44:28.446Z,19.90
2018-06-22T10:49:33.427Z,20.10
2018-06-22T10:54:38.401Z,20.20
2018-06-22T10:59:43.345Z,20.40
2018-06-22T11:04:48.199Z,21.00
2018-06-22T11:09:53.229Z,21.00
2018-06-22T11:14:58.414Z,20.90
2018-06-22T11:20:03.395Z,21.00
2018-06-22T11:25:08.226Z,21.10
2018-06-22T11:30:13.102Z,21.50
2018-06-22T11:35:18.080Z,21.20
2018-06-22T11:40:22.997Z,21.80
2018-06-22T11:45:28.041Z,22.10
2018-06-22T11:50:32.923Z,22.10
2018-06-22T11:55:37.584Z,22.30
2018-06-22T12:00:42.476Z,22.00
2018-06-22T12:05:47.404Z,21.80
2018-06-22T12:10:52.197Z,22.90
2018-06-22T12:15:56.876Z,24.00
2018-06-22T12:21:01.946Z,24.40
2018-06-22T12:26:07.083Z,24.10
2018-06-22T12:31:11.745Z,26.20
2018-06-22T12:36:16.677Z,25.60
2018-06-22T12:41:21.280Z,27.80
2018-06-22T12:46:26.298Z,26.00
2018-06-22T12:51:31.218Z,26.50
2018-06-22T12:56:36.141Z,28.70
2018-06-22T13:01:40.961Z,28.40
2018-06-22T13:06:45.704Z,24.70
2018-06-22T13:11:50.563Z,23.40
2018-06-22T13:16:55.236Z,22.90
2018-06-22T13:22:00.232Z,22.20
2018-06-22T13:27:04.987Z,21.20
2018-06-22T13:32:09.760Z,22.00
2018-06-22T13:37:14.758Z,21.80
2018-06-22T13:42:19.620Z,21.60
2018-06-22T13:47:24.469Z,21.60
2018-06-22T13:52:29.203Z,21.70
2018-06-22T13:57:33.966Z,21.80
2018-06-22T14:02:39.773Z,21.50
2018-06-22T14:07:44.601Z,21.60
2018-06-22T14:12:49.644Z,21.90
2018-06-22T14:17:54.829Z,22.10
2018-06-22T14:23:10.960Z,22.50
2018-06-22T14:28:17.912Z,22.80
2018-06-22T14:33:26.972Z,22.60
2018-06-22T14:38:32.988Z,22.10
2018-06-22T14:43:38.078Z,21.80
2018-06-22T14:48:43.040Z,22.50
2018-06-22T14:59:02.455Z,26.00
2018-06-22T15:09:17.425Z,22.80
2018-06-22T15:14:22.666Z,22.30
2018-06-22T15:19:27.891Z,21.30
2018-06-22T15:24:32.907Z,21.00
2018-06-22T15:29:38.020Z,22.10
2018-06-22T15:34:48.246Z,22.60
2018-06-22T15:39:59.082Z,22.00
2018-06-22T15:45:09.100Z,23.90
2018-06-22T15:50:19.943Z,26.10
2018-06-22T15:55:27.358Z,28.50
2018-06-22T16:00:32.565Z,30.60
2018-06-22T16:05:37.427Z,29.40
2018-06-22T16:10:42.736Z,25.00
2018-06-22T16:15:52.801Z,22.20
2018-06-22T16:21:02.824Z,20.80
2018-06-22T16:26:12.928Z,22.30
2018-06-22T16:31:17.822Z,22.90
2018-06-22T16:36:23.069Z,23.50
2018-06-22T16:41:27.987Z,20.80
2018-06-22T16:46:33.019Z,19.80
2018-06-22T16:51:38.007Z,19.70
2018-06-22T16:56:43.103Z,19.80
2018-06-22T17:01:48.541Z,20.00
2018-06-22T17:06:58.591Z,20.10
2018-06-22T17:12:09.210Z,20.00
2018-06-22T17:17:19.085Z,19.90
2018-06-22T17:22:24.127Z,19.70
2018-06-22T17:27:29.244Z,19.80
2018-06-22T17:32:34.328Z,19.40
2018-06-22T17:37:39.232Z,19.00
2018-06-22T17:42:44.282Z,18.80
2018-06-22T17:47:49.050Z,18.50
2018-06-22T17:52:53.820Z,18.40
2018-06-22T17:57:58.806Z,18.60
2018-06-22T18:03:08.834Z,18.30
2018-06-22T18:08:19.581Z,18.20
2018-06-22T18:18:29.352Z,17.90
2018-06-22T18:23:34.118Z,17.80
2018-06-22T18:28:39.024Z,17.70
2018-06-22T18:33:44.486Z,17.60
2018-06-22T18:38:49.260Z,17.60
2018-06-22T18:43:59.459Z,17.60
2018-06-22T18:49:04.490Z,17.50
2018-06-22T18:54:14.342Z,17.30
2018-06-22T18:59:24.270Z,17.20
2018-06-22T19:04:29.111Z,17.20
2018-06-22T19:09:34.587Z,17.20
2018-06-22T19:14:39.789Z,17.20
2018-06-22T19:19:44.886Z,17.10
2018-06-22T19:24:49.889Z,16.80
2018-06-22T19:29:54.684Z,16.70
2018-06-22T19:35:04.589Z,16.70
2018-06-22T19:40:09.523Z,16.60
2018-06-22T19:45:19.653Z,16.30
2018-06-22T19:50:29.723Z,16.10
2018-06-22T19:55:34.669Z,15.90
2018-06-22T20:00:39.644Z,15.70
2018-06-22T20:05:44.343Z,15.60
2018-06-22T20:10:49.554Z,15.60
2018-06-22T20:15:55.166Z,15.60
2018-06-22T20:21:00.039Z,15.60
2018-06-22T20:26:04.973Z,15.50
2018-06-22T20:31:12.215Z,15.50
2018-06-22T20:36:22.500Z,15.50
2018-06-22T20:41:32.888Z,15.40
2018-06-22T20:46:42.789Z,15.40
2018-06-22T20:51:48.078Z,15.20
2018-06-22T20:56:55.310Z,14.80
2018-06-22T21:02:00.769Z,14.60
2018-06-22T21:07:05.853Z,14.70
2018-06-22T21:12:10.849Z,14.70
2018-06-22T21:17:16.186Z,14.80
2018-06-22T21:22:21.738Z,14.70
2018-06-22T21:27:33.394Z,14.50
2018-06-22T21:32:43.803Z,14.30
2018-06-22T21:37:54.186Z,14.00
2018-06-22T21:42:59.735Z,13.70
2018-06-22T21:48:04.622Z,13.90
2018-06-22T21:53:09.686Z,14.00
2018-06-22T21:58:14.821Z,13.70
2018-06-22T22:03:20.105Z,13.60
2018-06-22T22:08:25.045Z,13.50
2018-06-22T22:13:30.578Z,13.40
2018-06-22T22:18:35.505Z,13.50
2018-06-22T22:23:49.073Z,13.60
2018-06-22T22:28:57.515Z,13.50
2018-06-22T22:34:02.755Z,13.50
2018-06-22T22:39:08.216Z,13.60
2018-06-22T22:44:13.039Z,13.80
2018-06-22T22:49:18.016Z,13.90
2018-06-22T23:04:31.104Z,13.70
2018-06-22T23:09:35.740Z,13.50
2018-06-22T23:14:40.602Z,13.60
2018-06-22T23:19:45.544Z,13.60
2018-06-22T23:24:50.718Z,13.50
2018-06-22T23:29:55.630Z,13.40
2018-06-22T23:35:01.258Z,13.30
2018-06-22T23:40:06.334Z,13.30
2018-06-22T23:45:10.946Z,13.20
2018-06-22T23:50:16.302Z,13.20
2018-06-22T23:55:21.081Z,13.20
